Time,TemperatureF,DewpointF,PressureIn,WindDirection,WindDirectionDegrees,WindSpeedMPH,WindSpeedGustMPH,Humidity,HourlyPrecipIn,Conditions,Clouds,dailyrainin,SoftwareType,DateUTC
2013-02-18 00:02:00,21.0,6.0,-100.00,SW,217,2.0,7.0,50,0.00,,,0.00,,2013-02-18 05:02:00,
2013-02-18 00:21:00,19.0,7.0,-100.00,WNW,287,0.0,2.0,58,0.00,,,0.00,,2013-02-18 05:21:00,
2013-02-18 00:32:00,19.0,7.0,-100.00,WNW,287,0.0,2.0,58,0.00,,,0.00,,2013-02-18 05:32:00,
2013-02-18 00:42:00,19.0,7.0,-100.00,North,357,0.0,1.0,59,0.00,,,0.00,,2013-02-18 05:42:00,
2013-02-18 00:52:00,19.0,7.0,-100.00,North,357,0.0,1.0,59,0.00,,,0.00,,2013-02-18 05:52:00,
2013-02-18 01:02:00,18.0,7.0,-100.00,WNW,302,0.0,2.0,61,0.00,,,0.00,,2013-02-18 06:02:00,
2013-02-18 01:11:00,18.0,7.0,-100.00,WNW,302,0.0,2.0,61,0.00,,,0.00,,2013-02-18 06:11:00,
2013-02-18 01:22:00,18.0,7.0,-100.00,NW,316,0.0,2.0,59,0.00,,,0.00,,2013-02-18 06:22:00,
2013-02-18 01:32:00,18.0,8.0,-100.00,NNW,343,1.0,3.0,64,0.00,,,0.00,,2013-02-18 06:32:00,
2013-02-18 01:42:00,18.0,8.0,-100.00,NNW,343,1.0,3.0,64,0.00,,,0.00,,2013-02-18 06:42:00,
2013-02-18 01:52:00,18.0,8.0,-100.00,NNW,343,1.0,3.0,64,0.00,,,0.00,,2013-02-18 06:52:00,
2013-02-18 02:02:00,18.0,8.0,-100.00,NNE,32,1.0,3.0,64,0.00,,,0.00,,2013-02-18 07:02:00,
2013-02-18 02:11:00,18.0,8.0,-100.00,NNE,32,1.0,3.0,64,0.00,,,0.00,,2013-02-18 07:11:00,
2013-02-18 02:22:00,17.0,8.0,-100.00,NNW,335,0.0,2.0,66,0.00,,,0.00,,2013-02-18 07:22:00,
2013-02-18 02:32:00,17.0,8.0,-100.00,NNW,335,0.0,2.0,66,0.00,,,0.00,,2013-02-18 07:32:00,
2013-02-18 02:42:00,17.0,9.0,-100.00,North,360,1.0,2.0,69,0.00,,,0.00,,2013-02-18 07:42:00,
2013-02-18 02:52:00,16.0,8.0,-100.00,NNE,21,1.0,3.0,71,0.00,,,0.00,,2013-02-18 07:52:00,
2013-02-18 03:01:00,16.0,8.0,-100.00,NNE,21,1.0,3.0,71,0.00,,,0.00,,2013-02-18 08:01:00,
2013-02-18 03:11:00,16.0,8.0,-100.00,NNE,21,1.0,3.0,71,0.00,,,0.00,,2013-02-18 08:11:00,
2013-02-18 03:21:00,16.0,9.0,-100.00,North,350,0.0,2.0,75,0.00,,,0.00,,2013-02-18 08:21:00,
2013-02-18 03:33:00,16.0,9.0,-100.00,North,350,0.0,2.0,75,0.00,,,0.00,,2013-02-18 08:33:00,
2013-02-18 03:42:00,15.0,8.0,-100.00,NNW,332,1.0,2.0,74,0.00,,,0.00,,2013-02-18 08:42:00,
2013-02-18 03:52:00,15.0,9.0,-100.00,NE,54,1.0,2.0,77,0.00,,,0.00,,2013-02-18 08:52:00,
2013-02-18 04:03:00,15.0,9.0,-100.00,NE,54,1.0,2.0,77,0.00,,,0.00,,2013-02-18 09:03:00,
2013-02-18 04:11:00,15.0,9.0,-100.00,NE,54,1.0,2.0,77,0.00,,,0.00,,2013-02-18 09:11:00,
2013-02-18 04:22:00,15.0,8.0,-100.00,North,8,1.0,3.0,75,0.00,,,0.00,,2013-02-18 09:22:00,
2013-02-18 04:32:00,14.0,8.0,-100.00,NW,313,0.0,2.0,76,0.00,,,0.00,,2013-02-18 09:32:00,
2013-02-18 04:42:00,14.0,8.0,-100.00,NW,313,0.0,2.0,76,0.00,,,0.00,,2013-02-18 09:42:00,
2013-02-18 04:52:00,14.0,8.0,-100.00,NW,313,0.0,2.0,76,0.00,,,0.00,,2013-02-18 09:52:00,
2013-02-18 05:01:00,14.0,9.0,-100.00,North,1,0.0,1.0,81,0.00,,,0.00,,2013-02-18 10:01:00,
2013-02-18 05:12:00,14.0,9.0,-100.00,North,1,0.0,1.0,81,0.00,,,0.00,,2013-02-18 10:12:00,
2013-02-18 05:22:00,13.0,9.0,-100.00,SW,217,1.0,2.0,83,0.00,,,0.00,,2013-02-18 10:22:00,
2013-02-18 05:32:00,13.0,9.0,-100.00,SW,217,1.0,2.0,83,0.00,,,0.00,,2013-02-18 10:32:00,
2013-02-18 05:42:00,13.0,9.0,-100.00,WSW,254,1.0,2.0,84,0.00,,,0.00,,2013-02-18 10:42:00,
2013-02-18 05:53:00,13.0,9.0,-100.00,NNE,25,1.0,3.0,83,0.00,,,0.00,,2013-02-18 10:53:00,
2013-02-18 06:02:00,13.0,9.0,-100.00,NNE,25,1.0,3.0,83,0.00,,,0.00,,2013-02-18 11:02:00,
2013-02-18 06:12:00,13.0,9.0,-100.00,NNE,25,1.0,3.0,83,0.00,,,0.00,,2013-02-18 11:12:00,
2013-02-18 06:22:00,13.0,9.0,-100.00,WNW,292,0.0,1.0,83,0.00,,,0.00,,2013-02-18 11:22:00,
2013-02-18 06:33:00,13.0,9.0,-100.00,WNW,292,0.0,1.0,83,0.00,,,0.00,,2013-02-18 11:33:00,
2013-02-18 06:42:00,13.0,9.0,-100.00,WNW,292,0.0,1.0,83,0.00,,,0.00,,2013-02-18 11:42:00,
2013-02-18 07:02:00,12.0,9.0,-100.00,SW,224,1.0,4.0,87,0.00,,,0.00,,2013-02-18 12:02:00,
2013-02-18 07:12:00,12.0,9.0,-100.00,SW,224,1.0,4.0,87,0.00,,,0.00,,2013-02-18 12:12:00,
2013-02-18 07:22:00,12.0,9.0,-100.00,North,352,1.0,2.0,88,0.00,,,0.00,,2013-02-18 12:22:00,
2013-02-18 07:32:00,12.0,9.0,-100.00,North,352,1.0,2.0,88,0.00,,,0.00,,2013-02-18 12:32:00,
2013-02-18 07:42:00,12.0,10.0,-100.00,SW,234,1.0,2.0,89,0.00,,,0.00,,2013-02-18 12:42:00,
2013-02-18 07:54:00,12.0,10.0,-100.00,SW,234,1.0,2.0,89,0.00,,,0.00,,2013-02-18 12:54:00,
2013-02-18 08:03:00,12.0,10.0,-100.00,SW,219,2.0,3.0,89,0.00,,,0.00,,2013-02-18 13:03:00,
2013-02-18 08:12:00,12.0,10.0,-100.00,SW,219,2.0,3.0,89,0.00,,,0.00,,2013-02-18 13:12:00,
2013-02-18 08:23:00,14.0,11.0,-100.00,WSW,239,2.0,4.0,88,0.00,,,0.00,,2013-02-18 13:23:00,
2013-02-18 08:32:00,16.0,12.0,-100.00,SSW,212,3.0,5.0,83,0.00,,,0.00,,2013-02-18 13:32:00,
2013-02-18 08:42:00,16.0,12.0,-100.00,SSW,212,3.0,5.0,83,0.00,,,0.00,,2013-02-18 13:42:00,
2013-02-18 08:53:00,16.0,12.0,-100.00,SSW,212,3.0,5.0,83,0.00,,,0.00,,2013-02-18 13:53:00,
2013-02-18 09:02:00,21.0,12.0,-100.00,SW,219,2.0,3.0,68,0.00,,,0.00,,2013-02-18 14:02:00,
2013-02-18 09:12:00,21.0,12.0,-100.00,SW,219,2.0,3.0,68,0.00,,,0.00,,2013-02-18 14:12:00,
2013-02-18 09:22:00,22.0,11.0,-100.00,SSW,212,2.0,4.0,62,0.00,,,0.00,,2013-02-18 14:22:00,
2013-02-18 09:33:00,22.0,11.0,-100.00,SSW,212,2.0,4.0,62,0.00,,,0.00,,2013-02-18 14:33:00,
2013-02-18 09:42:00,25.0,11.0,-100.00,SSW,213,2.0,5.0,54,0.00,,,0.00,,2013-02-18 14:42:00,
2013-02-18 09:54:00,25.0,11.0,-100.00,SSW,213,2.0,5.0,54,0.00,,,0.00,,2013-02-18 14:54:00,
2013-02-18 10:02:00,27.0,10.0,-100.00,SW,229,2.0,5.0,48,0.00,,,0.00,,2013-02-18 15:02:00,
2013-02-18 10:12:00,27.0,10.0,-100.00,SW,229,2.0,5.0,48,0.00,,,0.00,,2013-02-18 15:12:00,
2013-02-18 10:22:00,27.0,9.0,-100.00,SSW,205,4.0,6.0,45,0.00,,,0.00,,2013-02-18 15:22:00,
2013-02-18 10:32:00,27.0,9.0,-100.00,SSW,205,4.0,6.0,45,0.00,,,0.00,,2013-02-18 15:32:00,
2013-02-18 10:42:00,31.0,10.0,-100.00,SSW,203,4.0,7.0,41,0.00,,,0.00,,2013-02-18 15:42:00,
2013-02-18 10:53:00,31.0,10.0,-100.00,SSW,203,4.0,7.0,41,0.00,,,0.00,,2013-02-18 15:53:00,
2013-02-18 11:03:00,34.0,9.0,-100.00,SSW,206,4.0,7.0,34,0.00,,,0.00,,2013-02-18 16:03:00,
2013-02-18 11:12:00,34.0,9.0,-100.00,SSW,206,4.0,7.0,34,0.00,,,0.00,,2013-02-18 16:12:00,
2013-02-18 11:22:00,36.0,7.0,-100.00,SSW,200,4.0,8.0,30,0.00,,,0.00,,2013-02-18 16:22:00,
2013-02-18 11:33:00,36.0,7.0,-100.00,SSW,200,4.0,8.0,30,0.00,,,0.00,,2013-02-18 16:33:00,
2013-02-18 11:43:00,38.0,9.0,-100.00,SSW,210,3.0,6.0,30,0.00,,,0.00,,2013-02-18 16:43:00,
2013-02-18 11:53:00,38.0,9.0,-100.00,SSW,210,3.0,6.0,30,0.00,,,0.00,,2013-02-18 16:53:00,
2013-02-18 12:04:00,41.0,11.0,-100.00,South,176,2.0,5.0,29,0.00,,,0.00,,2013-02-18 17:04:00,
2013-02-18 12:13:00,41.0,11.0,-100.00,South,176,2.0,5.0,29,0.00,,,0.00,,2013-02-18 17:13:00,
2013-02-18 12:22:00,44.0,11.0,-100.00,SSW,196,3.0,7.0,26,0.00,,,0.00,,2013-02-18 17:22:00,
2013-02-18 12:33:00,44.0,11.0,-100.00,SSW,196,3.0,7.0,26,0.00,,,0.00,,2013-02-18 17:33:00,
2013-02-18 12:43:00,44.0,11.0,-100.00,ESE,103,2.0,6.0,27,0.00,,,0.00,,2013-02-18 17:43:00,
2013-02-18 12:53:00,44.0,11.0,-100.00,ESE,103,2.0,6.0,27,0.00,,,0.00,,2013-02-18 17:53:00,
2013-02-18 13:03:00,44.0,12.0,-100.00,SSW,192,3.0,7.0,27,0.00,,,0.00,,2013-02-18 18:03:00,
2013-02-18 13:13:00,44.0,12.0,-100.00,SSW,192,3.0,7.0,27,0.00,,,0.00,,2013-02-18 18:13:00,
2013-02-18 13:23:00,44.0,12.0,-100.00,SSW,192,3.0,7.0,27,0.00,,,0.00,,2013-02-18 18:23:00,
2013-02-18 13:43:00,48.0,13.0,-100.00,SSW,192,4.0,7.0,24,0.00,,,0.00,,2013-02-18 18:43:00,
2013-02-18 13:53:00,48.0,13.0,-100.00,SSW,192,4.0,7.0,24,0.00,,,0.00,,2013-02-18 18:53:00,
2013-02-18 14:03:00,48.0,14.0,-100.00,East,96,4.0,11.0,25,0.00,,,0.00,,2013-02-18 19:03:00,
2013-02-18 14:13:00,48.0,14.0,-100.00,East,96,4.0,11.0,25,0.00,,,0.00,,2013-02-18 19:13:00,
2013-02-18 14:22:00,49.0,15.0,-100.00,East,93,4.0,9.0,26,0.00,,,0.00,,2013-02-18 19:22:00,
2013-02-18 14:33:00,49.0,15.0,-100.00,East,93,4.0,9.0,26,0.00,,,0.00,,2013-02-18 19:33:00,
2013-02-18 14:43:00,49.0,16.0,-100.00,East,93,6.0,13.0,26,0.00,,,0.00,,2013-02-18 19:43:00,
2013-02-18 14:53:00,49.0,16.0,-100.00,East,93,6.0,13.0,26,0.00,,,0.00,,2013-02-18 19:53:00,
2013-02-18 15:03:00,50.0,15.0,-100.00,East,92,6.0,11.0,25,0.00,,,0.00,,2013-02-18 20:03:00,
2013-02-18 15:13:00,50.0,15.0,-100.00,East,92,6.0,11.0,25,0.00,,,0.00,,2013-02-18 20:13:00,
2013-02-18 15:23:00,51.0,16.0,-100.00,SE,124,3.0,12.0,25,0.00,,,0.00,,2013-02-18 20:23:00,
2013-02-18 15:33:00,51.0,16.0,-100.00,SE,124,3.0,12.0,25,0.00,,,0.00,,2013-02-18 20:33:00,
2013-02-18 15:42:00,51.0,17.0,-100.00,East,79,4.0,10.0,26,0.00,,,0.00,,2013-02-18 20:42:00,
2013-02-18 15:53:00,51.0,17.0,-100.00,East,79,4.0,10.0,26,0.00,,,0.00,,2013-02-18 20:53:00,
2013-02-18 16:03:00,52.0,17.0,-100.00,East,97,6.0,10.0,24,0.00,,,0.00,,2013-02-18 21:03:00,
2013-02-18 16:12:00,52.0,17.0,-100.00,East,97,6.0,10.0,24,0.00,,,0.00,,2013-02-18 21:12:00,
2013-02-18 16:22:00,53.0,17.0,-100.00,East,79,5.0,11.0,24,0.00,,,0.00,,2013-02-18 21:22:00,
2013-02-18 16:33:00,53.0,17.0,-100.00,East,79,5.0,11.0,24,0.00,,,0.00,,2013-02-18 21:33:00,
2013-02-18 16:43:00,53.0,17.0,-100.00,East,99,6.0,11.0,24,0.00,,,0.00,,2013-02-18 21:43:00,
2013-02-18 16:53:00,53.0,17.0,-100.00,East,99,6.0,11.0,24,0.00,,,0.00,,2013-02-18 21:53:00,
2013-02-18 17:03:00,53.0,17.0,-100.00,ESE,123,5.0,11.0,24,0.00,,,0.00,,2013-02-18 22:03:00,
2013-02-18 17:13:00,53.0,17.0,-100.00,ESE,123,5.0,11.0,24,0.00,,,0.00,,2013-02-18 22:13:00,
2013-02-18 17:23:00,51.0,16.0,-100.00,East,99,4.0,11.0,24,0.00,,,0.00,,2013-02-18 22:23:00,
2013-02-18 17:33:00,51.0,16.0,-100.00,East,99,4.0,11.0,24,0.00,,,0.00,,2013-02-18 22:33:00,
2013-02-18 17:43:00,51.0,17.0,-100.00,ENE,76,2.0,7.0,25,0.00,,,0.00,,2013-02-18 22:43:00,
2013-02-18 17:54:00,51.0,17.0,-100.00,ENE,76,2.0,7.0,25,0.00,,,0.00,,2013-02-18 22:54:00,
2013-02-18 18:03:00,50.0,16.0,-100.00,ESE,102,4.0,10.0,26,0.00,,,0.00,,2013-02-18 23:03:00,
2013-02-18 18:12:00,50.0,16.0,-100.00,ESE,102,4.0,10.0,26,0.00,,,0.00,,2013-02-18 23:12:00,
2013-02-18 18:23:00,50.0,17.0,-100.00,NE,48,5.0,10.0,27,0.00,,,0.00,,2013-02-18 23:23:00,
2013-02-18 18:34:00,50.0,17.0,-100.00,NE,48,5.0,10.0,27,0.00,,,0.00,,2013-02-18 23:34:00,
2013-02-18 18:43:00,49.0,17.0,-100.00,ENE,72,3.0,7.0,28,0.00,,,0.00,,2013-02-18 23:43:00,
2013-02-18 18:54:00,49.0,17.0,-100.00,ENE,72,3.0,7.0,28,0.00,,,0.00,,2013-02-18 23:54:00,
2013-02-18 19:03:00,47.0,17.0,-100.00,NW,318,2.0,4.0,30,0.00,,,0.00,,2013-02-19 00:03:00,
2013-02-18 19:13:00,47.0,17.0,-100.00,NW,318,2.0,4.0,30,0.00,,,0.00,,2013-02-19 00:13:00,
2013-02-18 19:23:00,47.0,17.0,-100.00,WNW,298,2.0,4.0,30,0.00,,,0.00,,2013-02-19 00:23:00,
2013-02-18 19:35:00,47.0,17.0,-100.00,WNW,298,2.0,4.0,30,0.00,,,0.00,,2013-02-19 00:35:00,
2013-02-18 20:03:00,47.0,18.0,-100.00,NE,40,3.0,10.0,32,0.00,,,0.00,,2013-02-19 01:03:00,
2013-02-18 20:14:00,47.0,18.0,-100.00,NE,40,3.0,10.0,32,0.00,,,0.00,,2013-02-19 01:14:00,
2013-02-18 20:24:00,47.0,18.0,-100.00,NE,51,3.0,6.0,31,0.00,,,0.00,,2013-02-19 01:24:00,
2013-02-18 20:35:00,47.0,18.0,-100.00,NE,51,3.0,6.0,31,0.00,,,0.00,,2013-02-19 01:35:00,
2013-02-18 20:44:00,46.0,18.0,-100.00,North,11,2.0,6.0,32,0.00,,,0.00,,2013-02-19 01:44:00,
2013-02-18 20:57:00,46.0,18.0,-100.00,North,11,2.0,6.0,32,0.00,,,0.00,,2013-02-19 01:57:00,
2013-02-18 21:04:00,46.0,18.0,-100.00,NNW,337,3.0,6.0,32,0.00,,,0.00,,2013-02-19 02:04:00,
2013-02-18 21:14:00,46.0,18.0,-100.00,NNW,337,3.0,6.0,32,0.00,,,0.00,,2013-02-19 02:14:00,
2013-02-18 21:23:00,46.0,18.0,-100.00,ENE,68,3.0,6.0,33,0.00,,,0.00,,2013-02-19 02:23:00,
2013-02-18 21:35:00,46.0,19.0,-100.00,NNE,13,3.0,7.0,33,0.00,,,0.00,,2013-02-19 02:35:00,
2013-02-18 21:43:00,46.0,19.0,-100.00,NNE,13,3.0,7.0,33,0.00,,,0.00,,2013-02-19 02:43:00,
2013-02-18 21:56:00,46.0,19.0,-100.00,NNE,13,3.0,7.0,33,0.00,,,0.00,,2013-02-19 02:56:00,
2013-02-18 22:07:00,46.0,19.0,-100.00,ENE,58,3.0,8.0,34,0.00,,,0.00,,2013-02-19 03:07:00,
2013-02-18 22:15:00,46.0,19.0,-100.00,ENE,58,3.0,8.0,34,0.00,,,0.00,,2013-02-19 03:15:00,
2013-02-18 22:25:00,45.0,19.0,-100.00,NE,54,3.0,8.0,35,0.00,,,0.00,,2013-02-19 03:25:00,
2013-02-18 22:35:00,45.0,19.0,-100.00,NE,54,3.0,8.0,35,0.00,,,0.00,,2013-02-19 03:35:00,
2013-02-18 22:45:00,45.0,19.0,-100.00,ENE,64,3.0,7.0,36,0.00,,,0.00,,2013-02-19 03:45:00,
2013-02-18 22:55:00,45.0,19.0,-100.00,ENE,64,3.0,7.0,36,0.00,,,0.00,,2013-02-19 03:55:00,
2013-02-18 23:03:00,44.0,20.0,-100.00,NE,49,3.0,7.0,37,0.00,,,0.00,,2013-02-19 04:03:00,
2013-02-18 23:14:00,44.0,20.0,-100.00,NE,49,3.0,7.0,37,0.00,,,0.00,,2013-02-19 04:14:00,
2013-02-18 23:24:00,44.0,20.0,-100.00,NE,42,3.0,6.0,38,0.00,,,0.00,,2013-02-19 04:24:00,
2013-02-18 23:34:00,44.0,20.0,-100.00,NE,42,3.0,6.0,38,0.00,,,0.00,,2013-02-19 04:34:00,
2013-02-18 23:44:00,43.0,21.0,-100.00,NNE,30,4.0,6.0,41,0.00,,,0.00,,2013-02-19 04:44:00,
2013-02-18 23:56:00,43.0,21.0,-100.00,NNE,30,4.0,6.0,41,0.00,,,0.00,,2013-02-19 04:56:00,